Time,TemperatureF,DewpointF,PressureIn,WindDirection,WindDirectionDegrees,WindSpeedMPH,WindSpeedGustMPH,Humidity,HourlyPrecipIn,Conditions,Clouds,dailyrainin,SoftwareType,DateUTC
2013-07-30 00:00:00,57.3,54.0,29.97,South,181,0.0,2.0,88,0.00,,,0.00,weatherlink.com 1.10,2013-07-30 06:00:00,
2013-07-30 00:15:00,57.3,54.0,29.97,South,181,0.0,0.0,88,0.00,,,0.00,weatherlink.com 1.10,2013-07-30 06:15:00,
2013-07-30 00:30:00,57.3,53.0,29.98,South,181,0.0,0.0,86,0.00,,,0.00,weatherlink.com 1.10,2013-07-30 06:30:00,
2013-07-30 00:45:00,58.0,53.0,29.99,South,181,0.0,0.0,83,0.00,,,0.00,weatherlink.com 1.10,2013-07-30 06:45:00,
2013-07-30 01:00:00,58.6,54.0,29.98,South,181,0.0,0.0,83,0.00,,,0.00,weatherlink.com 1.10,2013-07-30 07:00:00,
2013-07-30 01:15:00,58.9,53.0,29.98,South,181,0.0,1.0,80,0.00,,,0.00,weatherlink.com 1.10,2013-07-30 07:15:00,
2013-07-30 01:30:00,58.8,52.0,29.98,South,181,0.0,0.0,79,0.00,,,0.00,weatherlink.com 1.10,2013-07-30 07:30:00,
2013-07-30 01:45:00,58.7,52.0,29.98,South,181,0.0,0.0,79,0.00,,,0.00,weatherlink.com 1.10,2013-07-30 07:45:00,
2013-07-30 02:00:00,58.6,51.0,29.98,South,181,0.0,0.0,77,0.00,,,0.00,weatherlink.com 1.10,2013-07-30 08:00:00,
2013-07-30 02:15:00,58.8,51.0,29.98,South,181,0.0,0.0,76,0.00,,,0.00,weatherlink.com 1.10,2013-07-30 08:15:00,
2013-07-30 02:30:00,58.2,51.0,29.98,South,181,0.0,0.0,77,0.00,,,0.00,weatherlink.com 1.10,2013-07-30 08:30:00,
2013-07-30 02:45:00,57.6,51.0,29.98,South,181,0.0,0.0,78,0.00,,,0.00,weatherlink.com 1.10,2013-07-30 08:45:00,
2013-07-30 03:00:00,57.1,51.0,29.98,South,181,0.0,0.0,80,0.00,,,0.00,weatherlink.com 1.10,2013-07-30 09:00:00,
2013-07-30 03:15:00,56.4,51.0,29.98,South,181,0.0,0.0,81,0.00,,,0.00,weatherlink.com 1.10,2013-07-30 09:15:00,
2013-07-30 03:30:00,55.9,51.0,29.97,South,181,0.0,0.0,82,0.00,,,0.00,weatherlink.com 1.10,2013-07-30 09:30:00,
2013-07-30 03:45:00,55.2,51.0,29.98,South,181,0.0,0.0,84,0.00,,,0.00,weatherlink.com 1.10,2013-07-30 09:45:00,
2013-07-30 04:00:00,54.3,50.0,29.98,South,181,0.0,0.0,85,0.00,,,0.00,weatherlink.com 1.10,2013-07-30 10:00:00,
2013-07-30 04:15:00,53.9,50.0,29.98,South,181,0.0,0.0,86,0.00,,,0.00,weatherlink.com 1.10,2013-07-30 10:15:00,
2013-07-30 04:30:00,53.3,50.0,29.99,South,181,0.0,1.0,87,0.00,,,0.00,weatherlink.com 1.10,2013-07-30 10:30:00,
2013-07-30 04:45:00,53.3,50.0,29.99,South,181,0.0,0.0,87,0.00,,,0.00,weatherlink.com 1.10,2013-07-30 10:45:00,
2013-07-30 05:00:00,53.2,50.0,30.00,South,181,1.0,1.0,87,0.00,,,0.00,weatherlink.com 1.10,2013-07-30 11:00:00,
2013-07-30 05:15:00,53.1,50.0,30.00,South,181,0.0,0.0,88,0.00,,,0.00,weatherlink.com 1.10,2013-07-30 11:15:00,
2013-07-30 05:30:00,52.9,50.0,30.01,South,181,0.0,0.0,88,0.00,,,0.00,weatherlink.com 1.10,2013-07-30 11:30:00,
2013-07-30 05:45:00,52.5,49.0,30.01,South,181,0.0,0.0,89,0.00,,,0.00,weatherlink.com 1.10,2013-07-30 11:45:00,
2013-07-30 06:00:00,52.4,50.0,30.01,South,181,0.0,0.0,90,0.00,,,0.00,weatherlink.com 1.10,2013-07-30 12:00:00,
2013-07-30 06:15:00,52.4,50.0,30.01,South,181,0.0,0.0,90,0.00,,,0.00,weatherlink.com 1.10,2013-07-30 12:15:00,
2013-07-30 06:30:00,52.7,50.0,30.01,South,181,0.0,0.0,90,0.00,,,0.00,weatherlink.com 1.10,2013-07-30 12:30:00,
2013-07-30 06:45:00,53.2,50.0,30.01,South,181,0.0,0.0,90,0.00,,,0.00,weatherlink.com 1.10,2013-07-30 12:45:00,
2013-07-30 07:00:00,53.7,51.0,30.02,South,181,0.0,1.0,90,0.00,,,0.00,weatherlink.com 1.10,2013-07-30 13:00:00,
2013-07-30 07:15:00,54.9,52.0,30.02,South,181,0.0,0.0,89,0.00,,,0.00,weatherlink.com 1.10,2013-07-30 13:15:00,
2013-07-30 07:30:00,56.7,53.0,30.01,South,181,0.0,0.0,87,0.00,,,0.00,weatherlink.com 1.10,2013-07-30 13:30:00,
2013-07-30 07:45:00,58.9,53.0,30.01,South,181,0.0,0.0,82,0.00,,,0.00,weatherlink.com 1.10,2013-07-30 13:45:00,
2013-07-30 08:00:00,60.6,54.0,30.01,South,181,0.0,0.0,78,0.00,,,0.00,weatherlink.com 1.10,2013-07-30 14:00:00,
2013-07-30 08:15:00,62.2,54.0,30.01,South,181,0.0,0.0,74,0.00,,,0.00,weatherlink.com 1.10,2013-07-30 14:15:00,
2013-07-30 08:31:00,63.9,54.0,30.02,South,181,0.0,1.0,70,0.00,,,0.00,weatherlink.com 1.10,2013-07-30 14:31:00,
2013-07-30 08:46:00,65.1,54.0,30.01,South,181,0.0,1.0,67,0.00,,,0.00,weatherlink.com 1.10,2013-07-30 14:46:00,
2013-07-30 09:01:00,67.0,53.0,30.02,South,181,0.0,2.0,61,0.00,,,0.00,weatherlink.com 1.10,2013-07-30 15:01:00,
2013-07-30 09:16:00,68.4,53.0,30.01,South,181,0.0,1.0,58,0.00,,,0.00,weatherlink.com 1.10,2013-07-30 15:16:00,
2013-07-30 09:31:00,69.8,54.0,30.01,South,181,0.0,1.0,57,0.00,,,0.00,weatherlink.com 1.10,2013-07-30 15:31:00,
2013-07-30 09:46:00,71.3,54.0,30.01,South,181,0.0,2.0,55,0.00,,,0.00,weatherlink.com 1.10,2013-07-30 15:46:00,
2013-07-30 10:01:00,72.3,55.0,30.00,NE,40,0.0,2.0,55,0.00,,,0.00,weatherlink.com 1.10,2013-07-30 16:01:00,
2013-07-30 10:16:00,72.7,54.0,30.00,NE,43,0.0,4.0,52,0.00,,,0.00,weatherlink.com 1.10,2013-07-30 16:16:00,
2013-07-30 10:46:00,75.3,55.0,30.00,NE,43,0.0,3.0,49,0.00,,,0.00,weatherlink.com 1.10,2013-07-30 16:46:00,
2013-07-30 11:01:00,76.9,53.0,29.99,NE,43,1.0,3.0,43,0.00,,,0.00,weatherlink.com 1.10,2013-07-30 17:01:00,
2013-07-30 11:16:00,78.0,54.0,29.99,East,79,3.0,5.0,43,0.00,,,0.00,weatherlink.com 1.10,2013-07-30 17:16:00,
2013-07-30 11:31:00,78.3,53.0,29.99,NE,44,2.0,5.0,41,0.00,,,0.00,weatherlink.com 1.10,2013-07-30 17:31:00,
2013-07-30 11:46:00,79.5,52.0,29.99,NNE,19,1.0,5.0,38,0.00,,,0.00,weatherlink.com 1.10,2013-07-30 17:46:00,
2013-07-30 12:01:00,79.4,52.0,29.99,NNE,22,2.0,6.0,39,0.00,,,0.00,weatherlink.com 1.10,2013-07-30 18:01:00,
2013-07-30 12:16:00,80.1,51.0,29.99,East,96,0.0,4.0,36,0.00,,,0.00,weatherlink.com 1.10,2013-07-30 18:16:00,
2013-07-30 12:31:00,81.3,49.0,29.99,NE,46,5.0,5.0,32,0.00,,,0.00,weatherlink.com 1.10,2013-07-30 18:31:00,
2013-07-30 12:46:00,82.0,49.0,29.98,NNW,346,0.0,5.0,32,0.00,,,0.00,weatherlink.com 1.10,2013-07-30 18:46:00,
2013-07-30 13:16:00,83.2,48.0,29.97,NE,40,0.0,7.0,29,0.00,,,0.00,weatherlink.com 1.10,2013-07-30 19:16:00,
2013-07-30 13:32:00,84.1,48.0,29.96,North,5,0.0,3.0,28,0.00,,,0.00,weatherlink.com 1.10,2013-07-30 19:32:00,
2013-07-30 13:47:00,83.3,48.0,29.96,North,350,1.0,6.0,29,0.00,,,0.00,weatherlink.com 1.10,2013-07-30 19:47:00,
2013-07-30 14:02:00,84.1,47.0,29.96,NE,42,0.0,4.0,27,0.00,,,0.00,weatherlink.com 1.10,2013-07-30 20:02:00,
2013-07-30 14:17:00,84.6,48.0,29.95,ENE,76,0.0,5.0,28,0.00,,,0.00,weatherlink.com 1.10,2013-07-30 20:17:00,
2013-07-30 14:32:00,84.0,47.0,29.96,ENE,72,0.0,7.0,27,0.00,,,0.00,weatherlink.com 1.10,2013-07-30 20:32:00,
2013-07-30 14:47:00,84.2,49.0,29.95,NE,51,3.0,5.0,29,0.00,,,0.00,weatherlink.com 1.10,2013-07-30 20:47:00,
2013-07-30 15:02:00,84.3,47.0,29.95,NE,34,4.0,5.0,27,0.00,,,0.00,weatherlink.com 1.10,2013-07-30 21:02:00,
2013-07-30 15:17:00,84.4,48.0,29.94,ENE,67,0.0,6.0,28,0.00,,,0.00,weatherlink.com 1.10,2013-07-30 21:17:00,
2013-07-30 15:32:00,84.7,46.0,29.93,East,82,0.0,2.0,26,0.00,,,0.00,weatherlink.com 1.10,2013-07-30 21:32:00,
2013-07-30 15:47:00,83.9,45.0,29.93,NNE,13,0.0,5.0,25,0.00,,,0.00,weatherlink.com 1.10,2013-07-30 21:47:00,
2013-07-30 16:02:00,83.5,51.0,29.93,NNE,13,0.0,0.0,32,0.00,,,0.00,weatherlink.com 1.10,2013-07-30 22:02:00,
2013-07-30 16:17:00,83.3,46.0,29.93,NE,39,0.0,2.0,27,0.00,,,0.00,weatherlink.com 1.10,2013-07-30 22:17:00,
2013-07-30 16:32:00,83.9,47.0,29.92,WNW,297,0.0,3.0,28,0.00,,,0.00,weatherlink.com 1.10,2013-07-30 22:32:00,
2013-07-30 16:47:00,84.8,46.0,29.92,WNW,284,0.0,6.0,26,0.00,,,0.00,weatherlink.com 1.10,2013-07-30 22:47:00,
2013-07-30 17:02:00,85.8,48.0,29.91,WNW,284,0.0,3.0,27,0.00,,,0.00,weatherlink.com 1.10,2013-07-30 23:02:00,
2013-07-30 17:17:00,86.3,47.0,29.91,WNW,285,1.0,2.0,25,0.00,,,0.00,weatherlink.com 1.10,2013-07-30 23:17:00,
2013-07-30 17:32:00,86.6,46.0,29.90,WNW,285,0.0,2.0,24,0.00,,,0.00,weatherlink.com 1.10,2013-07-30 23:32:00,
2013-07-30 17:47:00,85.6,50.0,29.91,WNW,285,0.0,1.0,29,0.00,,,0.00,weatherlink.com 1.10,2013-07-30 23:47:00,
2013-07-30 18:02:00,84.7,49.0,29.91,WNW,285,0.0,0.0,29,0.00,,,0.00,weatherlink.com 1.10,2013-07-31 00:02:00,
2013-07-30 18:17:00,81.3,55.0,29.92,WNW,285,0.0,1.0,41,0.00,,,0.00,weatherlink.com 1.10,2013-07-31 00:17:00,
2013-07-30 18:32:00,76.0,49.0,29.96,West,269,32.0,32.0,38,0.00,,,0.00,weatherlink.com 1.10,2013-07-31 00:32:00,
2013-07-30 18:47:00,68.1,53.0,30.00,West,264,9.0,27.0,59,0.00,,,0.00,weatherlink.com 1.10,2013-07-31 00:47:00,
2013-07-30 19:02:00,65.6,55.0,29.94,West,271,2.0,7.0,68,0.00,,,0.00,weatherlink.com 1.10,2013-07-31 01:02:00,
2013-07-30 19:17:00,66.6,54.0,29.94,SW,232,0.0,5.0,65,0.00,,,0.00,weatherlink.com 1.10,2013-07-31 01:17:00,
2013-07-30 19:32:00,67.6,54.0,29.96,NE,47,1.0,4.0,61,0.00,,,0.00,weatherlink.com 1.10,2013-07-31 01:32:00,
2013-07-30 19:47:00,69.1,55.0,29.96,NE,35,0.0,7.0,61,0.00,,,0.00,weatherlink.com 1.10,2013-07-31 01:47:00,
2013-07-30 20:02:00,69.3,57.0,29.96,NE,51,0.0,1.0,64,0.00,,,0.00,weatherlink.com 1.10,2013-07-31 02:02:00,
2013-07-30 20:17:00,68.6,55.0,29.96,NE,51,0.0,0.0,62,0.00,,,0.00,weatherlink.com 1.10,2013-07-31 02:17:00,
2013-07-30 20:32:00,67.8,57.0,29.97,NE,51,0.0,0.0,68,0.00,,,0.00,weatherlink.com 1.10,2013-07-31 02:32:00,
2013-07-30 20:47:00,66.8,56.0,29.97,NE,51,0.0,0.0,69,0.00,,,0.00,weatherlink.com 1.10,2013-07-31 02:47:00,
2013-07-30 21:02:00,66.7,55.0,29.98,NE,51,0.0,0.0,67,0.00,,,0.00,weatherlink.com 1.10,2013-07-31 03:02:00,
2013-07-30 21:17:00,67.1,54.0,29.98,ENE,57,0.0,0.0,64,0.00,,,0.00,weatherlink.com 1.10,2013-07-31 03:17:00,
2013-07-30 21:32:00,67.4,53.0,29.99,SE,146,0.0,1.0,60,0.00,,,0.00,weatherlink.com 1.10,2013-07-31 03:32:00,
2013-07-30 21:47:00,67.4,53.0,29.99,SE,146,0.0,1.0,60,0.00,,,0.00,weatherlink.com 1.10,2013-07-31 03:47:00,
2013-07-30 22:02:00,67.4,53.0,29.99,SE,146,0.0,1.0,60,0.00,,,0.00,weatherlink.com 1.10,2013-07-31 04:02:00,
2013-07-30 22:17:00,67.2,53.0,29.99,SE,146,0.0,1.0,60,0.00,,,0.00,weatherlink.com 1.10,2013-07-31 04:17:00,
2013-07-30 22:32:00,67.1,53.0,29.99,SE,146,0.0,0.0,61,0.00,,,0.00,weatherlink.com 1.10,2013-07-31 04:32:00,
2013-07-30 22:47:00,66.6,53.0,29.99,SE,146,0.0,0.0,62,0.00,,,0.00,weatherlink.com 1.10,2013-07-31 04:47:00,
2013-07-30 23:02:00,66.5,52.0,29.98,SE,146,0.0,0.0,60,0.00,,,0.00,weatherlink.com 1.10,2013-07-31 05:02:00,
2013-07-30 23:17:00,66.7,53.0,29.98,SE,146,0.0,1.0,61,0.00,,,0.00,weatherlink.com 1.10,2013-07-31 05:17:00,
2013-07-30 23:32:00,66.6,53.0,29.97,SSE,152,0.0,1.0,61,0.00,,,0.00,weatherlink.com 1.10,2013-07-31 05:32:00,
2013-07-30 23:47:00,66.0,52.0,29.97,SSE,153,0.0,1.0,60,0.00,,,0.00,weatherlink.com 1.10,2013-07-31 05:47:00,